ENTC/TOS METAR and TAF weather

Enter ICAO airport designator
Station Type Date Time Source
ENTC METAR 2021/09/25 12:20 UTC NOAA

ENTC 251220Z 22011KT 9999 -DZ FEW021 OVC029 08/05 Q0997 REDZ NOSIG RMK WIND 2600FT 22011KT


Station Type Date Time Source
ENTC Decoded METAR 2021/09/25 12:20 UTC NOAA

Tromso / Langnes, Norway (ENTC) 69-41N 018-55E 10M
Sep 25, 2021 - 08:20 AM EDT / 2021.09.25 1220 UTC
Wind: from the SW (220 degrees) at 13 MPH (11 KT):0
Visibility: greater than 7 mile(s):0
Sky conditions: overcast
Weather: light drizzle
Temperature: 46 F (8 C)
Dew Point: 41 F (5 C)
Relative Humidity: 81%
Pressure (altimeter): 29.44 in. Hg (0997 hPa)
ob: ENTC 251220Z 22011KT 9999 -DZ FEW021 OVC029 08/05 Q0997 REDZ NOSIG RMK WIND 2600FT 22011KT
cycle: 12

Station Type Date Time Source
ENTC TAF 2021/09/25 12:57 UTC NOAA

TAF ENTC 251100Z 2512/2612 19008KT 9999 FEW020 BKN030
TEMPO 2514/2524 SHRA BKN012

Example: see airport list